sensor_id;sensor_type;location;lat;lon;timestamp;temperature;humidity
29255;DHT22;16277;48.890;2.306;2023-07-09T00:13:53;26.40;99.90
29255;DHT22;16277;48.890;2.306;2023-07-09T00:28:58;26.10;99.90
29255;DHT22;16277;48.890;2.306;2023-07-09T00:44:27;26.10;99.90
29255;DHT22;16277;48.890;2.306;2023-07-09T00:59:35;26.00;99.90
29255;DHT22;16277;48.890;2.306;2023-07-09T01:14:40;25.70;99.90
29255;DHT22;16277;48.890;2.306;2023-07-09T01:29:45;26.00;99.90
29255;DHT22;16277;48.890;2.306;2023-07-09T01:44:53;26.00;99.90
29255;DHT22;16277;48.890;2.306;2023-07-09T01:59:58;25.40;99.90
29255;DHT22;16277;48.890;2.306;2023-07-09T02:15:04;25.60;99.90
29255;DHT22;16277;48.890;2.306;2023-07-09T02:30:09;25.00;99.90
29255;DHT22;16277;48.890;2.306;2023-07-09T02:45:15;25.20;99.90
29255;DHT22;16277;48.890;2.306;2023-07-09T03:00:19;25.10;99.90
29255;DHT22;16277;48.890;2.306;2023-07-09T03:15:24;25.50;99.90
29255;DHT22;16277;48.890;2.306;2023-07-09T03:30:29;25.00;99.90
29255;DHT22;16277;48.890;2.306;2023-07-09T03:45:34;24.60;99.90
29255;DHT22;16277;48.890;2.306;2023-07-09T04:00:39;24.70;99.90
29255;DHT22;16277;48.890;2.306;2023-07-09T04:15:44;24.70;99.90
29255;DHT22;16277;48.890;2.306;2023-07-09T04:30:49;24.50;99.90
29255;DHT22;16277;48.890;2.306;2023-07-09T04:45:54;24.70;99.90
29255;DHT22;16277;48.890;2.306;2023-07-09T05:00:59;25.40;99.90
29255;DHT22;16277;48.890;2.306;2023-07-09T05:16:04;25.00;99.90
29255;DHT22;16277;48.890;2.306;2023-07-09T05:31:09;24.50;99.90
29255;DHT22;16277;48.890;2.306;2023-07-09T05:46:14;25.30;99.90
29255;DHT22;16277;48.890;2.306;2023-07-09T06:01:18;25.90;99.90
29255;DHT22;16277;48.890;2.306;2023-07-09T06:16:24;25.30;99.90
29255;DHT22;16277;48.890;2.306;2023-07-09T06:31:29;25.90;99.90
29255;DHT22;16277;48.890;2.306;2023-07-09T06:46:37;26.30;99.90
29255;DHT22;16277;48.890;2.306;2023-07-09T07:01:42;26.30;99.90
29255;DHT22;16277;48.890;2.306;2023-07-09T07:16:47;26.40;99.90
29255;DHT22;16277;48.890;2.306;2023-07-09T07:31:51;25.40;99.90
29255;DHT22;16277;48.890;2.306;2023-07-09T07:46:58;25.10;99.90
29255;DHT22;16277;48.890;2.306;2023-07-09T08:02:04;25.30;99.90
29255;DHT22;16277;48.890;2.306;2023-07-09T08:17:08;24.80;99.90
29255;DHT22;16277;48.890;2.306;2023-07-09T08:32:14;24.70;99.90
29255;DHT22;16277;48.890;2.306;2023-07-09T08:47:25;25.10;99.90
29255;DHT22;16277;48.890;2.306;2023-07-09T09:02:36;25.20;99.90
29255;DHT22;16277;48.890;2.306;2023-07-09T09:17:43;24.70;99.90
29255;DHT22;16277;48.890;2.306;2023-07-09T09:32:51;25.90;99.90
29255;DHT22;16277;48.890;2.306;2023-07-09T09:48:00;25.60;99.90
29255;DHT22;16277;48.890;2.306;2023-07-09T10:03:05;25.00;99.90
29255;DHT22;16277;48.890;2.306;2023-07-09T10:18:21;25.00;99.90
29255;DHT22;16277;48.890;2.306;2023-07-09T10:33:33;26.00;99.90
29255;DHT22;16277;48.890;2.306;2023-07-09T10:48:43;25.20;99.90
29255;DHT22;16277;48.890;2.306;2023-07-09T11:03:50;25.10;99.90
29255;DHT22;16277;48.890;2.306;2023-07-09T11:19:02;25.30;99.90
29255;DHT22;16277;48.890;2.306;2023-07-09T11:34:16;25.80;99.90
29255;DHT22;16277;48.890;2.306;2023-07-09T11:49:23;25.80;99.90
29255;DHT22;16277;48.890;2.306;2023-07-09T12:04:32;26.60;99.90
29255;DHT22;16277;48.890;2.306;2023-07-09T12:19:39;26.80;99.90
29255;DHT22;16277;48.890;2.306;2023-07-09T12:34:47;27.10;99.90
29255;DHT22;16277;48.890;2.306;2023-07-09T12:50:01;27.30;99.90
29255;DHT22;16277;48.890;2.306;2023-07-09T13:05:16;27.60;99.90
29255;DHT22;16277;48.890;2.306;2023-07-09T13:20:21;28.10;99.70
29255;DHT22;16277;48.890;2.306;2023-07-09T13:35:25;28.10;98.20
29255;DHT22;16277;48.890;2.306;2023-07-09T13:50:30;28.50;97.40
29255;DHT22;16277;48.890;2.306;2023-07-09T14:05:34;29.90;95.30
29255;DHT22;16277;48.890;2.306;2023-07-09T14:20:39;29.00;94.90
29255;DHT22;16277;48.890;2.306;2023-07-09T14:35:45;28.60;95.90
29255;DHT22;16277;48.890;2.306;2023-07-09T14:50:50;28.30;95.10
29255;DHT22;16277;48.890;2.306;2023-07-09T15:05:54;28.00;96.60
29255;DHT22;16277;48.890;2.306;2023-07-09T15:21:00;27.90;96.80
29255;DHT22;16277;48.890;2.306;2023-07-09T15:36:10;28.00;96.60
29255;DHT22;16277;48.890;2.306;2023-07-09T15:51:15;27.70;97.10
29255;DHT22;16277;48.890;2.306;2023-07-09T16:06:20;28.70;96.00
29255;DHT22;16277;48.890;2.306;2023-07-09T16:21:26;28.40;96.40
29255;DHT22;16277;48.890;2.306;2023-07-09T16:36:31;28.00;97.90
29255;DHT22;16277;48.890;2.306;2023-07-09T16:51:36;27.80;97.80
29255;DHT22;16277;48.890;2.306;2023-07-09T17:06:43;27.10;98.80
29255;DHT22;16277;48.890;2.306;2023-07-09T17:21:48;27.50;98.30
29255;DHT22;16277;48.890;2.306;2023-07-09T17:36:54;27.10;98.60
29255;DHT22;16277;48.890;2.306;2023-07-09T17:51:59;27.30;98.20
29255;DHT22;16277;48.890;2.306;2023-07-09T18:07:21;27.00;98.20
29255;DHT22;16277;48.890;2.306;2023-07-09T18:22:26;26.90;98.30
29255;DHT22;16277;48.890;2.306;2023-07-09T18:37:34;26.90;98.10
29255;DHT22;16277;48.890;2.306;2023-07-09T18:52:38;26.00;99.90
29255;DHT22;16277;48.890;2.306;2023-07-09T19:07:43;26.20;99.90
29255;DHT22;16277;48.890;2.306;2023-07-09T19:22:48;25.70;99.90
29255;DHT22;16277;48.890;2.306;2023-07-09T19:37:53;25.70;99.90
29255;DHT22;16277;48.890;2.306;2023-07-09T19:52:59;26.40;99.60
29255;DHT22;16277;48.890;2.306;2023-07-09T20:08:13;25.80;99.90
29255;DHT22;16277;48.890;2.306;2023-07-09T20:23:18;25.30;99.60
29255;DHT22;16277;48.890;2.306;2023-07-09T20:38:27;25.50;99.50
29255;DHT22;16277;48.890;2.306;2023-07-09T20:53:32;26.30;98.60
29255;DHT22;16277;48.890;2.306;2023-07-09T21:08:36;25.80;98.80
29255;DHT22;16277;48.890;2.306;2023-07-09T21:23:40;25.60;99.20
29255;DHT22;16277;48.890;2.306;2023-07-09T21:38:45;26.00;98.10
29255;DHT22;16277;48.890;2.306;2023-07-09T21:53:49;26.20;97.60
29255;DHT22;16277;48.890;2.306;2023-07-09T22:08:57;25.60;98.10
29255;DHT22;16277;48.890;2.306;2023-07-09T22:24:02;25.80;98.20
29255;DHT22;16277;48.890;2.306;2023-07-09T22:39:09;25.10;98.80
29255;DHT22;16277;48.890;2.306;2023-07-09T22:54:15;25.50;98.00
29255;DHT22;16277;48.890;2.306;2023-07-09T23:09:20;25.50;98.10
29255;DHT22;16277;48.890;2.306;2023-07-09T23:24:24;25.80;97.20
29255;DHT22;16277;48.890;2.306;2023-07-09T23:39:29;25.80;95.40
29255;DHT22;16277;48.890;2.306;2023-07-09T23:54:33;25.70;95.00
